createdAt,value
2023-03-07T00:00:02.260Z,989.04
2023-03-07T00:01:02.252Z,989.11
2023-03-07T00:02:02.236Z,988.98
2023-03-07T00:03:02.271Z,989.06
2023-03-07T00:04:02.312Z,989.02
2023-03-07T00:05:02.195Z,989.05
2023-03-07T00:06:02.183Z,989.11
2023-03-07T00:07:02.180Z,989.14
2023-03-07T00:08:02.192Z,989.10
2023-03-07T00:09:02.142Z,989.13
2023-03-07T00:10:02.131Z,989.12
2023-03-07T00:11:02.109Z,989.03
2023-03-07T00:12:02.104Z,989.05
2023-03-07T00:13:02.110Z,989.09
2023-03-07T00:14:02.083Z,989.04
2023-03-07T00:15:02.077Z,989.08
2023-03-07T00:16:02.065Z,989.11
2023-03-07T00:17:02.039Z,989.12
2023-03-07T00:18:02.037Z,989.12
2023-03-07T00:19:02.032Z,989.08
2023-03-07T00:20:01.998Z,989.09
2023-03-07T00:21:02.003Z,988.99
2023-03-07T00:22:01.982Z,988.92
2023-03-07T00:23:01.981Z,989.00
2023-03-07T00:24:01.964Z,988.99
2023-03-07T00:25:01.947Z,988.98
2023-03-07T00:26:01.929Z,989.00
2023-03-07T00:27:01.917Z,988.99
2023-03-07T00:28:01.910Z,988.97
2023-03-07T00:29:01.885Z,989.05
2023-03-07T00:30:01.955Z,989.07
2023-03-07T00:31:01.918Z,989.12
2023-03-07T00:32:01.907Z,989.03
2023-03-07T00:33:01.849Z,989.05
2023-03-07T00:34:01.817Z,989.01
2023-03-07T00:35:01.813Z,989.00
2023-03-07T00:36:01.868Z,988.94
2023-03-07T00:37:01.796Z,988.89
2023-03-07T00:38:01.788Z,988.93
2023-03-07T00:39:01.768Z,988.87
2023-03-07T00:40:01.769Z,988.83
2023-03-07T00:41:01.739Z,988.91
2023-03-07T00:42:01.725Z,988.93
2023-03-07T00:43:01.727Z,988.88
2023-03-07T00:44:01.701Z,988.93
2023-03-07T00:45:01.701Z,988.87
2023-03-07T00:46:01.744Z,988.83
2023-03-07T00:47:01.659Z,988.77
2023-03-07T00:48:01.656Z,988.79
2023-03-07T00:49:01.630Z,988.79
2023-03-07T00:50:01.623Z,988.77
2023-03-07T00:51:01.609Z,988.77
2023-03-07T00:52:01.591Z,988.71
2023-03-07T00:53:01.595Z,988.67
2023-03-07T00:54:01.591Z,988.67
2023-03-07T00:55:01.573Z,988.66
2023-03-07T00:56:01.583Z,988.53
2023-03-07T00:57:01.532Z,988.59
2023-03-07T00:58:01.519Z,988.56
2023-03-07T00:59:01.523Z,988.53
2023-03-07T01:00:01.494Z,988.53
2023-03-07T01:01:01.535Z,988.50
2023-03-07T01:02:01.468Z,988.52
2023-03-07T01:03:01.453Z,988.49
2023-03-07T01:04:01.475Z,988.47
2023-03-07T01:05:01.429Z,988.44
2023-03-07T01:06:01.422Z,988.42
2023-03-07T01:07:01.409Z,988.44
2023-03-07T01:08:01.393Z,988.52
2023-03-07T01:09:01.396Z,988.53
2023-03-07T01:10:01.367Z,988.49
2023-03-07T01:11:01.368Z,988.46
2023-03-07T01:12:01.459Z,988.48
2023-03-07T01:13:01.327Z,988.52
2023-03-07T01:14:01.332Z,988.42
2023-03-07T01:15:01.302Z,988.43
2023-03-07T01:16:01.292Z,988.43
2023-03-07T01:17:01.277Z,988.44
2023-03-07T01:18:01.265Z,988.38
2023-03-07T01:19:01.280Z,988.46
2023-03-07T01:20:01.247Z,988.39
2023-03-07T01:21:01.224Z,988.42
2023-03-07T01:22:01.239Z,988.42
2023-03-07T01:23:01.201Z,988.38
2023-03-07T01:24:01.204Z,988.41
2023-03-07T01:25:01.181Z,988.42
2023-03-07T01:26:01.168Z,988.40
2023-03-07T01:27:01.157Z,988.39
2023-03-07T01:28:01.158Z,988.38
2023-03-07T01:29:01.145Z,988.37
2023-03-07T01:30:01.110Z,988.31
2023-03-07T01:31:01.142Z,988.34
2023-03-07T01:32:01.160Z,988.31
2023-03-07T01:33:01.074Z,988.36
2023-03-07T01:34:01.088Z,988.18
2023-03-07T01:35:01.048Z,988.28
2023-03-07T01:36:01.125Z,988.28
2023-03-07T01:37:01.028Z,988.23
2023-03-07T01:38:01.010Z,988.29
2023-03-07T01:39:01.026Z,988.26
2023-03-07T01:40:00.981Z,988.22
2023-03-07T01:41:00.970Z,988.27
2023-03-07T01:42:00.960Z,988.26
2023-03-07T01:43:00.956Z,988.18
2023-03-07T01:44:00.970Z,988.22
2023-03-07T01:45:00.929Z,988.21
2023-03-07T01:46:00.965Z,988.23
2023-03-07T01:47:01.005Z,988.21
2023-03-07T01:48:00.885Z,988.17
2023-03-07T01:49:00.898Z,988.11
2023-03-07T01:50:00.951Z,988.12
2023-03-07T01:51:00.848Z,988.13
2023-03-07T01:52:00.834Z,988.06
2023-03-07T01:53:00.832Z,988.04
2023-03-07T01:54:00.819Z,988.07
2023-03-07T01:55:00.795Z,988.06
2023-03-07T01:56:00.778Z,988.07
2023-03-07T01:57:00.767Z,988.08
2023-03-07T01:58:00.754Z,988.08
2023-03-07T01:59:00.743Z,988.05
2023-03-07T02:00:00.764Z,987.99
2023-03-07T02:01:00.752Z,988.00
2023-03-07T02:02:00.705Z,987.96
2023-03-07T02:03:00.713Z,988.01
2023-03-07T02:04:00.704Z,987.92
2023-03-07T02:05:00.690Z,987.97
2023-03-07T02:06:00.660Z,987.89
2023-03-07T02:07:00.639Z,987.89
2023-03-07T02:08:00.626Z,987.86
2023-03-07T02:09:00.626Z,987.88
2023-03-07T02:10:00.628Z,987.87
2023-03-07T02:11:00.592Z,987.90
2023-03-07T02:12:00.575Z,987.83
2023-03-07T02:13:00.559Z,987.87
2023-03-07T02:14:00.572Z,987.82
2023-03-07T02:15:00.556Z,987.79
2023-03-07T02:16:00.630Z,987.79
2023-03-07T02:17:00.510Z,987.78
2023-03-07T02:18:00.503Z,987.78
2023-03-07T02:19:00.488Z,987.72
2023-03-07T02:20:00.486Z,987.76
2023-03-07T02:21:00.460Z,987.78
2023-03-07T02:22:00.458Z,987.70
2023-03-07T02:23:00.439Z,987.70
2023-03-07T02:24:00.424Z,987.74
2023-03-07T02:25:00.429Z,987.71
2023-03-07T02:26:00.399Z,987.73
2023-03-07T02:27:00.387Z,987.74
2023-03-07T02:28:00.408Z,987.65
2023-03-07T02:29:00.369Z,987.64
2023-03-07T02:30:00.365Z,987.67
2023-03-07T02:31:00.380Z,987.65
2023-03-07T02:32:00.347Z,987.74
2023-03-07T02:33:00.320Z,987.64
2023-03-07T02:34:00.309Z,987.63
2023-03-07T02:35:00.328Z,987.65
2023-03-07T02:36:00.344Z,987.64
2023-03-07T02:37:00.257Z,987.64
2023-03-07T02:38:00.244Z,987.60
2023-03-07T02:39:00.236Z,987.57
2023-03-07T02:40:00.251Z,987.55
2023-03-07T02:41:00.221Z,987.57
2023-03-07T02:42:00.202Z,987.59
2023-03-07T02:43:00.184Z,987.58
2023-03-07T02:44:00.172Z,987.59
2023-03-07T02:45:00.172Z,987.57
2023-03-07T02:46:00.228Z,987.57
2023-03-07T02:47:00.130Z,987.51
2023-03-07T02:48:00.242Z,987.54
2023-03-07T02:49:00.120Z,987.52
2023-03-07T02:50:00.185Z,987.48
2023-03-07T02:51:00.097Z,987.53
2023-03-07T02:52:00.098Z,987.46
2023-03-07T02:53:00.075Z,987.46
2023-03-07T02:54:00.064Z,987.48
2023-03-07T02:55:00.087Z,987.45
2023-03-07T02:56:00.021Z,987.37
2023-03-07T02:57:00.006Z,987.35
2023-03-07T02:57:59.996Z,987.31
2023-03-07T02:58:59.986Z,987.41
2023-03-07T03:00:00.009Z,987.33
2023-03-07T03:00:59.958Z,987.40
2023-03-07T03:01:59.990Z,987.37
2023-03-07T03:02:59.937Z,987.40
2023-03-07T03:03:59.943Z,987.34
2023-03-07T03:04:59.951Z,987.32
2023-03-07T03:05:59.920Z,987.36
2023-03-07T03:06:59.886Z,987.30
2023-03-07T03:07:59.874Z,987.28
2023-03-07T03:08:59.867Z,987.34
2023-03-07T03:09:59.847Z,987.37
2023-03-07T03:10:59.856Z,987.38
2023-03-07T03:11:59.824Z,987.31
2023-03-07T03:12:59.813Z,987.31
2023-03-07T03:13:59.798Z,987.30
2023-03-07T03:14:59.789Z,987.30
2023-03-07T03:15:59.943Z,987.29
2023-03-07T03:16:59.769Z,987.33
2023-03-07T03:17:59.748Z,987.30
2023-03-07T03:18:59.736Z,987.30
2023-03-07T03:19:59.787Z,987.29
2023-03-07T03:20:59.745Z,987.30
2023-03-07T03:21:59.704Z,987.28
2023-03-07T03:22:59.689Z,987.16
2023-03-07T03:23:59.674Z,987.14
2023-03-07T03:24:59.694Z,987.18
2023-03-07T03:25:59.665Z,987.21
2023-03-07T03:26:59.655Z,987.16
2023-03-07T03:27:59.626Z,987.24
2023-03-07T03:28:59.614Z,987.15
2023-03-07T03:29:59.599Z,987.17
2023-03-07T03:30:59.630Z,987.13
2023-03-07T03:31:59.571Z,987.21
2023-03-07T03:32:59.560Z,987.16
2023-03-07T03:33:59.550Z,987.21
2023-03-07T03:34:59.535Z,987.08
2023-03-07T03:35:59.597Z,987.15
2023-03-07T03:36:59.517Z,987.13
2023-03-07T03:37:59.495Z,987.10
2023-03-07T03:38:59.480Z,987.15
2023-03-07T03:39:59.479Z,987.12
2023-03-07T03:40:59.517Z,987.05
2023-03-07T03:41:59.440Z,987.10
2023-03-07T03:42:59.434Z,987.13
2023-03-07T03:43:59.415Z,987.15
2023-03-07T03:44:59.407Z,987.05
2023-03-07T03:45:59.408Z,987.12
2023-03-07T03:46:59.477Z,987.08
2023-03-07T03:47:59.367Z,987.01
2023-03-07T03:48:59.354Z,986.98
2023-03-07T03:49:59.348Z,986.96
2023-03-07T03:50:59.371Z,986.98
2023-03-07T03:51:59.336Z,986.94
2023-03-07T03:52:59.310Z,986.94
2023-03-07T03:53:59.287Z,987.01
2023-03-07T03:54:59.282Z,986.96
2023-03-07T03:55:59.265Z,986.91
2023-03-07T03:56:59.291Z,986.90
2023-03-07T03:57:59.243Z,986.88
2023-03-07T03:58:59.238Z,986.81
2023-03-07T03:59:59.221Z,986.84
2023-03-07T04:00:59.209Z,986.84
2023-03-07T04:01:59.372Z,986.86
2023-03-07T04:02:59.332Z,986.84
2023-03-07T04:03:59.176Z,986.79
2023-03-07T04:04:59.152Z,986.83
2023-03-07T04:05:59.136Z,986.74
2023-03-07T04:06:59.149Z,986.91
2023-03-07T04:07:59.134Z,986.82
2023-03-07T04:08:59.100Z,986.80
2023-03-07T04:09:59.095Z,986.77
2023-03-07T04:10:59.081Z,986.77
2023-03-07T04:11:59.079Z,986.71
2023-03-07T04:12:59.045Z,986.73
2023-03-07T04:13:59.039Z,986.71
2023-03-07T04:14:59.026Z,986.72
2023-03-07T04:15:59.012Z,986.73
2023-03-07T04:16:59.016Z,986.73
2023-03-07T04:17:58.993Z,986.76
2023-03-07T04:18:58.982Z,986.74
2023-03-07T04:19:58.956Z,986.75
2023-03-07T04:20:58.950Z,986.71
2023-03-07T04:21:58.955Z,986.76
2023-03-07T04:22:58.925Z,986.69
2023-03-07T04:23:58.937Z,986.73
2023-03-07T04:24:58.900Z,986.74
2023-03-07T04:25:58.968Z,986.69
2023-03-07T04:26:58.889Z,986.70
2023-03-07T04:27:58.859Z,986.69
2023-03-07T04:28:58.853Z,986.68
2023-03-07T04:29:58.839Z,986.67
2023-03-07T04:30:58.820Z,986.62
2023-03-07T04:31:58.871Z,986.64
2023-03-07T04:32:58.791Z,986.68
2023-03-07T04:33:58.785Z,986.63
2023-03-07T04:34:58.778Z,986.55
2023-03-07T04:35:58.783Z,986.54
2023-03-07T04:36:58.758Z,986.54
2023-03-07T04:37:58.735Z,986.51
2023-03-07T04:38:58.720Z,986.59
2023-03-07T04:39:58.751Z,986.55
2023-03-07T04:40:58.696Z,986.52
2023-03-07T04:41:58.694Z,986.52
2023-03-07T04:42:58.665Z,986.50
2023-03-07T04:43:58.657Z,986.57
2023-03-07T04:44:58.645Z,986.52
2023-03-07T04:45:58.686Z,986.46
2023-03-07T04:46:58.633Z,986.50
2023-03-07T04:47:58.608Z,986.47
2023-03-07T04:48:58.673Z,986.54
2023-03-07T04:49:58.579Z,986.55
2023-03-07T04:50:58.569Z,986.54
2023-03-07T04:51:58.567Z,986.57
2023-03-07T04:52:58.540Z,986.50
2023-03-07T04:53:58.533Z,986.54
2023-03-07T04:54:58.525Z,986.47
2023-03-07T04:55:58.523Z,986.46
2023-03-07T04:56:58.511Z,986.48
2023-03-07T04:57:58.480Z,986.43
2023-03-07T04:58:58.468Z,986.44
2023-03-07T04:59:58.455Z,986.46
2023-03-07T05:00:58.543Z,986.47
2023-03-07T05:01:58.458Z,986.41
2023-03-07T05:02:58.415Z,986.39
2023-03-07T05:03:58.438Z,986.40
2023-03-07T05:04:58.387Z,986.44
2023-03-07T05:05:58.379Z,986.48
2023-03-07T05:06:58.400Z,986.46
2023-03-07T05:07:58.364Z,986.46
2023-03-07T05:08:58.343Z,986.40
2023-03-07T05:09:58.330Z,986.45
2023-03-07T05:10:58.326Z,986.41
2023-03-07T05:11:58.361Z,986.42
2023-03-07T05:12:58.295Z,986.35
2023-03-07T05:13:58.288Z,986.38
2023-03-07T05:14:58.264Z,986.31
2023-03-07T05:15:58.350Z,986.33
2023-03-07T05:16:58.245Z,986.31
2023-03-07T05:17:58.251Z,986.29
2023-03-07T05:18:58.215Z,986.27
2023-03-07T05:19:58.208Z,986.28
2023-03-07T05:20:58.188Z,986.26
2023-03-07T05:21:58.182Z,986.18
2023-03-07T05:22:58.183Z,986.23
2023-03-07T05:23:58.153Z,986.21
2023-03-07T05:24:58.133Z,986.24
2023-03-07T05:25:58.123Z,986.20
2023-03-07T05:26:58.107Z,986.24
2023-03-07T05:27:58.136Z,986.21
2023-03-07T05:28:58.083Z,986.21
2023-03-07T05:29:58.073Z,986.16
2023-03-07T05:30:58.137Z,986.23
2023-03-07T05:31:58.052Z,986.17
2023-03-07T05:32:58.050Z,986.23
2023-03-07T05:33:58.023Z,986.16
2023-03-07T05:34:58.011Z,986.21
2023-03-07T05:35:58.044Z,986.16
2023-03-07T05:36:57.982Z,986.18
2023-03-07T05:37:57.983Z,986.16
2023-03-07T05:38:57.961Z,986.19
2023-03-07T05:39:57.948Z,986.19
2023-03-07T05:40:57.931Z,986.16
2023-03-07T05:41:57.920Z,986.22
2023-03-07T05:42:57.919Z,986.15
2023-03-07T05:43:57.935Z,986.14
2023-03-07T05:44:57.881Z,986.19
2023-03-07T05:45:57.936Z,986.10
2023-03-07T05:46:57.854Z,986.13
2023-03-07T05:47:57.862Z,986.15
2023-03-07T05:48:57.830Z,986.15
2023-03-07T05:49:57.824Z,986.13
2023-03-07T05:50:57.807Z,986.09
2023-03-07T05:51:57.799Z,986.14
2023-03-07T05:52:57.822Z,986.10
2023-03-07T05:53:57.772Z,986.11
2023-03-07T05:54:57.769Z,986.09
2023-03-07T05:55:57.744Z,986.10
2023-03-07T05:56:57.732Z,986.13
2023-03-07T05:57:57.738Z,986.07
2023-03-07T05:58:57.709Z,986.06
2023-03-07T05:59:57.773Z,986.10
2023-03-07T06:00:57.682Z,986.00
2023-03-07T06:01:57.664Z,986.00
2023-03-07T06:02:57.708Z,986.01
2023-03-07T06:03:57.656Z,986.05
2023-03-07T06:04:57.629Z,985.98
2023-03-07T06:05:57.620Z,986.07
2023-03-07T06:06:57.604Z,986.09
2023-03-07T06:07:57.607Z,985.94
2023-03-07T06:08:57.616Z,985.97
2023-03-07T06:09:57.581Z,985.99
2023-03-07T06:10:57.558Z,986.02
2023-03-07T06:11:57.541Z,985.97
2023-03-07T06:12:57.542Z,986.04
2023-03-07T06:13:57.551Z,986.00
2023-03-07T06:14:57.501Z,985.93
2023-03-07T06:15:57.535Z,986.00
2023-03-07T06:16:57.516Z,986.04
2023-03-07T06:17:57.477Z,986.02
2023-03-07T06:18:57.452Z,986.01
2023-03-07T06:19:57.439Z,986.03
2023-03-07T06:20:57.420Z,986.00
2023-03-07T06:21:57.409Z,986.01
2023-03-07T06:22:57.418Z,986.06
2023-03-07T06:23:57.390Z,985.99
2023-03-07T06:24:57.376Z,985.99
2023-03-07T06:25:57.373Z,985.99
2023-03-07T06:26:57.352Z,986.03
2023-03-07T06:27:57.360Z,986.02
2023-03-07T06:28:57.336Z,986.00
2023-03-07T06:29:57.310Z,985.98
2023-03-07T06:30:57.298Z,986.03
2023-03-07T06:31:57.364Z,985.98
2023-03-07T06:32:57.337Z,985.99
2023-03-07T06:33:57.759Z,986.06
2023-03-07T06:34:57.245Z,986.03
2023-03-07T06:35:57.281Z,986.10
2023-03-07T06:36:57.219Z,986.06
2023-03-07T06:37:57.231Z,986.07
2023-03-07T06:38:57.210Z,986.08
2023-03-07T06:39:57.205Z,986.01
2023-03-07T06:40:57.170Z,986.01
2023-03-07T06:41:57.162Z,985.96
2023-03-07T06:42:57.148Z,986.03
2023-03-07T06:43:57.161Z,986.02
2023-03-07T06:44:57.123Z,986.06
2023-03-07T06:45:57.265Z,986.01
2023-03-07T06:46:57.124Z,986.03
2023-03-07T06:47:57.099Z,986.04
2023-03-07T06:48:57.092Z,986.05
2023-03-07T06:49:57.060Z,986.11
2023-03-07T06:50:57.049Z,986.06
2023-03-07T06:51:57.033Z,986.05
2023-03-07T06:52:57.018Z,986.11
2023-03-07T06:53:57.022Z,986.05
2023-03-07T06:54:56.993Z,986.10
2023-03-07T06:55:56.987Z,986.16
2023-03-07T06:56:56.971Z,986.08
2023-03-07T06:57:56.968Z,986.12
2023-03-07T06:58:56.953Z,986.18
2023-03-07T06:59:56.932Z,986.20
2023-03-07T07:00:56.920Z,986.18
2023-03-07T07:01:57.043Z,986.18
2023-03-07T07:02:57.038Z,986.11
2023-03-07T07:03:56.913Z,986.11
2023-03-07T07:04:56.864Z,986.07
2023-03-07T07:05:56.853Z,986.04
2023-03-07T07:06:56.836Z,986.10
2023-03-07T07:07:56.823Z,986.12
2023-03-07T07:08:56.840Z,986.05
2023-03-07T07:09:56.813Z,986.11
2023-03-07T07:10:56.784Z,986.11
2023-03-07T07:11:56.778Z,986.12
2023-03-07T07:12:56.801Z,986.11
2023-03-07T07:13:56.764Z,986.04
2023-03-07T07:14:56.733Z,986.03
2023-03-07T07:15:56.721Z,986.02
2023-03-07T07:16:56.708Z,986.08
2023-03-07T07:17:56.707Z,986.06
2023-03-07T07:18:56.696Z,986.09
2023-03-07T07:19:56.693Z,986.07
2023-03-07T07:20:56.661Z,986.10
2023-03-07T07:21:56.649Z,986.05
2023-03-07T07:22:56.631Z,986.03
2023-03-07T07:23:56.646Z,986.11
2023-03-07T07:24:56.606Z,986.10
2023-03-07T07:25:56.593Z,986.01
2023-03-07T07:26:56.590Z,986.02
2023-03-07T07:27:56.571Z,986.05
2023-03-07T07:28:56.571Z,986.09
2023-03-07T07:29:56.559Z,986.11
2023-03-07T07:30:56.539Z,986.00
2023-03-07T07:31:56.618Z,986.08
2023-03-07T07:32:56.600Z,986.03
2023-03-07T07:33:56.509Z,986.05
2023-03-07T07:34:56.481Z,986.10
2023-03-07T07:35:56.544Z,986.08
2023-03-07T07:36:56.455Z,986.09
2023-03-07T07:37:56.452Z,986.04
2023-03-07T07:38:56.444Z,986.08
2023-03-07T07:39:56.423Z,986.02
2023-03-07T07:40:56.417Z,986.05
2023-03-07T07:41:56.400Z,986.00
2023-03-07T07:42:56.377Z,986.06
2023-03-07T07:43:56.379Z,986.09
2023-03-07T07:44:56.356Z,986.00
2023-03-07T07:45:56.389Z,986.09
2023-03-07T07:46:56.326Z,986.09
2023-03-07T07:47:56.319Z,986.05
2023-03-07T07:48:56.305Z,986.01
2023-03-07T07:49:56.312Z,986.03
2023-03-07T07:50:56.285Z,986.03
2023-03-07T07:51:56.294Z,986.07
2023-03-07T07:52:56.261Z,986.10
2023-03-07T07:53:56.258Z,986.08
2023-03-07T07:54:56.246Z,986.05
2023-03-07T07:55:56.220Z,986.07
2023-03-07T07:56:56.211Z,986.09
2023-03-07T07:57:56.221Z,986.02
2023-03-07T07:58:56.185Z,986.00
2023-03-07T07:59:56.178Z,986.15
2023-03-07T08:00:56.159Z,986.07
2023-03-07T08:01:56.145Z,986.07
2023-03-07T08:02:56.126Z,986.04
2023-03-07T08:03:56.113Z,986.15
2023-03-07T08:04:56.110Z,986.02
2023-03-07T08:05:56.088Z,986.02
2023-03-07T08:06:56.073Z,986.02
2023-03-07T08:07:56.098Z,986.05
2023-03-07T08:08:56.047Z,986.02
2023-03-07T08:09:56.055Z,986.00
2023-03-07T08:10:56.022Z,986.01
2023-03-07T08:11:56.025Z,986.03
2023-03-07T08:12:55.995Z,986.04
2023-03-07T08:13:56.002Z,986.03
2023-03-07T08:14:56.006Z,986.06
2023-03-07T08:15:56.012Z,985.98
2023-03-07T08:16:55.944Z,986.04
2023-03-07T08:17:55.952Z,985.99
2023-03-07T08:18:56.022Z,986.00
2023-03-07T08:19:55.929Z,985.93
2023-03-07T08:20:55.896Z,985.95
2023-03-07T08:21:55.886Z,985.90
2023-03-07T08:22:55.870Z,985.90
2023-03-07T08:23:55.890Z,985.92
2023-03-07T08:24:55.869Z,985.91
2023-03-07T08:25:55.835Z,985.95
2023-03-07T08:26:55.826Z,985.88
2023-03-07T08:27:55.821Z,985.97
2023-03-07T08:28:55.800Z,985.89
2023-03-07T08:29:55.808Z,985.91
2023-03-07T08:30:55.796Z,985.85
2023-03-07T08:31:55.760Z,985.87
2023-03-07T08:32:55.742Z,985.87
2023-03-07T08:33:55.749Z,985.80
2023-03-07T08:34:55.727Z,985.77
2023-03-07T08:35:55.819Z,985.82
2023-03-07T08:36:55.693Z,985.76
2023-03-07T08:37:55.695Z,985.81
2023-03-07T08:38:55.670Z,985.84
2023-03-07T08:39:55.712Z,985.79
2023-03-07T08:40:55.674Z,985.76
2023-03-07T08:41:55.661Z,985.73
2023-03-07T08:42:55.620Z,985.79
2023-03-07T08:43:55.625Z,985.73
2023-03-07T08:44:55.596Z,985.72
2023-03-07T08:45:55.664Z,985.68
2023-03-07T08:46:55.566Z,985.64
2023-03-07T08:47:55.563Z,985.70
2023-03-07T08:48:55.550Z,985.71
2023-03-07T08:49:55.527Z,985.73
2023-03-07T08:50:55.531Z,985.65
2023-03-07T08:51:55.507Z,985.81
2023-03-07T08:52:55.491Z,985.61
2023-03-07T08:53:55.485Z,985.63
2023-03-07T08:54:55.482Z,985.63
2023-03-07T08:55:55.489Z,985.54
2023-03-07T08:56:55.437Z,985.54
2023-03-07T08:57:55.427Z,985.56
2023-03-07T08:58:55.413Z,985.52
2023-03-07T08:59:55.404Z,985.56
2023-03-07T09:00:55.423Z,985.48
2023-03-07T09:01:55.453Z,985.64
2023-03-07T09:02:55.356Z,985.55
2023-03-07T09:03:55.348Z,985.43
2023-03-07T09:04:55.359Z,985.42
2023-03-07T09:05:55.342Z,985.38
2023-03-07T09:06:55.310Z,985.46
2023-03-07T09:07:55.297Z,985.42
2023-03-07T09:08:55.283Z,985.41
2023-03-07T09:09:55.273Z,985.41
2023-03-07T09:10:55.270Z,985.39
2023-03-07T09:11:55.266Z,985.49
2023-03-07T09:12:55.262Z,985.47
2023-03-07T09:13:55.271Z,985.45
2023-03-07T09:14:55.209Z,985.40
2023-03-07T09:15:55.239Z,985.47
2023-03-07T09:16:55.189Z,985.47
2023-03-07T09:17:55.171Z,985.43
2023-03-07T09:18:55.167Z,985.48
2023-03-07T09:19:55.145Z,985.50
2023-03-07T09:20:55.142Z,985.54
2023-03-07T09:21:55.110Z,985.56
2023-03-07T09:22:55.098Z,985.52
2023-03-07T09:23:55.084Z,985.52
2023-03-07T09:24:55.074Z,985.57
2023-03-07T09:25:55.080Z,985.55
2023-03-07T09:26:55.050Z,985.52
2023-03-07T09:27:55.062Z,985.45
2023-03-07T09:28:55.030Z,985.44
2023-03-07T09:29:55.005Z,985.47
2023-03-07T09:30:55.009Z,985.47
2023-03-07T09:31:54.994Z,985.46
2023-03-07T09:32:54.973Z,985.44
2023-03-07T09:33:54.985Z,985.41
2023-03-07T09:34:54.954Z,985.45
2023-03-07T09:35:55.060Z,985.47
2023-03-07T09:36:54.917Z,985.45
2023-03-07T09:37:54.914Z,985.45
2023-03-07T09:38:57.794Z,985.44
2023-03-07T09:39:54.882Z,985.41
2023-03-07T09:40:54.880Z,985.49
2023-03-07T09:41:54.856Z,985.41
2023-03-07T09:42:54.844Z,985.35
2023-03-07T09:43:54.857Z,985.39
2023-03-07T09:44:54.824Z,985.36
2023-03-07T09:45:54.919Z,985.31
2023-03-07T09:46:54.795Z,985.42
2023-03-07T09:47:54.773Z,985.34
2023-03-07T09:48:54.761Z,985.42
2023-03-07T09:49:54.749Z,985.42
2023-03-07T09:50:54.753Z,985.39
2023-03-07T09:51:54.726Z,985.35
2023-03-07T09:52:54.712Z,985.37
2023-03-07T09:53:54.698Z,985.36
2023-03-07T09:54:54.694Z,985.27
2023-03-07T09:55:54.716Z,985.28
2023-03-07T09:56:54.665Z,985.24
2023-03-07T09:57:54.653Z,985.20
2023-03-07T09:58:54.651Z,985.18
2023-03-07T09:59:54.645Z,985.18
2023-03-07T10:00:54.634Z,985.18
2023-03-07T10:01:54.612Z,985.14
2023-03-07T10:02:54.593Z,985.22
2023-03-07T10:03:54.738Z,985.14
2023-03-07T10:04:54.557Z,985.17
2023-03-07T10:05:54.569Z,985.18
2023-03-07T10:06:55.243Z,985.08
2023-03-07T10:07:54.520Z,985.10
2023-03-07T10:08:54.510Z,985.10
2023-03-07T10:09:54.496Z,985.18
2023-03-07T10:10:54.502Z,985.05
2023-03-07T10:11:54.511Z,985.11
2023-03-07T10:12:54.452Z,985.06
2023-03-07T10:13:54.442Z,985.07
2023-03-07T10:14:54.431Z,985.08
2023-03-07T10:15:54.521Z,985.07
2023-03-07T10:16:54.455Z,985.01
2023-03-07T10:17:54.412Z,985.01
2023-03-07T10:18:54.386Z,984.98
2023-03-07T10:19:54.385Z,984.96
2023-03-07T10:20:54.350Z,985.00
2023-03-07T10:21:54.352Z,984.93
2023-03-07T10:22:54.327Z,984.89
2023-03-07T10:23:54.315Z,984.91
2023-03-07T10:24:54.317Z,984.94
2023-03-07T10:25:54.286Z,984.95
2023-03-07T10:26:54.285Z,984.98
2023-03-07T10:27:54.260Z,984.96
2023-03-07T10:28:54.256Z,984.97
2023-03-07T10:29:54.235Z,984.91
2023-03-07T10:30:54.220Z,984.90
2023-03-07T10:31:54.409Z,984.98
2023-03-07T10:32:54.190Z,985.00
2023-03-07T10:33:54.176Z,984.95
2023-03-07T10:34:54.167Z,984.94
2023-03-07T10:35:54.183Z,984.90
2023-03-07T10:37:07.752Z,984.99
2023-03-07T10:37:54.125Z,984.94
2023-03-07T10:38:54.118Z,984.93
2023-03-07T10:39:54.158Z,984.84
2023-03-07T10:40:54.085Z,984.89
2023-03-07T10:41:54.084Z,984.87
2023-03-07T10:42:54.081Z,984.87
2023-03-07T10:43:54.051Z,984.79
2023-03-07T10:44:54.031Z,984.85
2023-03-07T10:45:54.080Z,984.92
2023-03-07T10:46:56.527Z,984.85
2023-03-07T10:47:54.019Z,984.77
2023-03-07T10:48:53.989Z,984.70
2023-03-07T10:49:53.970Z,984.79
2023-03-07T10:50:54.613Z,984.82
2023-03-07T10:51:53.980Z,984.69
2023-03-07T10:52:53.951Z,984.65
2023-03-07T10:53:53.916Z,984.84
2023-03-07T10:54:53.905Z,984.69
2023-03-07T10:55:53.890Z,984.87
2023-03-07T10:56:53.886Z,984.88
2023-03-07T10:57:53.856Z,984.93
2023-03-07T10:58:53.847Z,984.88
2023-03-07T10:59:53.850Z,984.83
2023-03-07T11:00:53.834Z,984.89
2023-03-07T11:01:53.818Z,984.81
2023-03-07T11:02:53.794Z,984.66
2023-03-07T11:03:56.881Z,984.65
2023-03-07T11:04:53.824Z,984.66
2023-03-07T11:05:53.754Z,984.59
2023-03-07T11:06:53.760Z,984.63
2023-03-07T11:07:53.727Z,984.60
2023-03-07T11:08:53.716Z,984.66
2023-03-07T11:09:53.704Z,984.59
2023-03-07T11:10:53.687Z,984.63
2023-03-07T11:11:53.698Z,984.57
2023-03-07T11:12:53.681Z,984.60
2023-03-07T11:13:53.647Z,984.69
2023-03-07T11:14:53.638Z,984.54
2023-03-07T11:16:02.903Z,984.63
2023-03-07T11:16:53.639Z,984.82
2023-03-07T11:17:53.604Z,984.74
2023-03-07T11:18:53.582Z,984.77
2023-03-07T11:19:53.593Z,984.55
2023-03-07T11:20:53.560Z,984.47
2023-03-07T11:21:53.560Z,984.50
2023-03-07T11:22:53.535Z,984.36
2023-03-07T11:23:53.563Z,984.51
2023-03-07T11:24:53.506Z,984.47
2023-03-07T11:25:53.502Z,984.39
2023-03-07T11:26:53.482Z,984.40
2023-03-07T11:27:53.492Z,984.40
2023-03-07T11:28:53.454Z,984.39
2023-03-07T11:29:53.439Z,984.67
2023-03-07T11:30:53.472Z,984.34
2023-03-07T11:31:53.430Z,984.23
2023-03-07T11:32:53.419Z,984.35
2023-03-07T11:34:00.162Z,984.38
2023-03-07T11:34:54.378Z,984.38
2023-03-07T11:35:53.444Z,984.22
2023-03-07T11:36:53.351Z,984.16
2023-03-07T11:37:53.347Z,984.19
2023-03-07T11:38:53.344Z,984.31
2023-03-07T11:39:53.315Z,984.26
2023-03-07T11:40:53.300Z,984.23
2023-03-07T11:41:53.283Z,984.13
2023-03-07T11:42:53.289Z,984.30
2023-03-07T11:43:53.264Z,984.18
2023-03-07T11:44:53.249Z,984.30
2023-03-07T11:45:53.231Z,984.24
2023-03-07T11:46:53.278Z,984.11
2023-03-07T11:47:53.237Z,984.19
2023-03-07T11:48:53.192Z,984.04
2023-03-07T11:49:53.184Z,984.19
2023-03-07T11:50:53.172Z,984.13
2023-03-07T11:51:53.189Z,984.22
2023-03-07T11:52:53.153Z,984.19
2023-03-07T11:53:53.136Z,984.19
2023-03-07T11:54:53.136Z,984.08
2023-03-07T11:55:53.102Z,984.11
2023-03-07T11:56:53.102Z,984.08
2023-03-07T11:57:53.096Z,984.21
2023-03-07T11:58:53.064Z,984.00
2023-03-07T11:59:53.051Z,984.04
2023-03-07T12:00:53.040Z,984.00
2023-03-07T12:01:53.024Z,983.93
2023-03-07T12:02:53.121Z,984.02
2023-03-07T12:03:53.472Z,984.05
2023-03-07T12:04:52.992Z,984.08
2023-03-07T12:05:53.131Z,984.04
2023-03-07T12:06:52.976Z,983.99
2023-03-07T12:07:52.970Z,984.05
2023-03-07T12:08:52.955Z,983.89
2023-03-07T12:09:52.925Z,984.04
2023-03-07T12:10:52.918Z,983.88
2023-03-07T12:11:52.900Z,983.83
2023-03-07T12:12:52.885Z,983.83
2023-03-07T12:13:52.892Z,983.93
2023-03-07T12:14:52.858Z,983.92
2023-03-07T12:15:52.971Z,984.03
2023-03-07T12:16:52.905Z,983.91
2023-03-07T12:17:52.821Z,984.05
2023-03-07T12:18:52.821Z,983.87
2023-03-07T12:19:52.790Z,983.81
2023-03-07T12:20:52.783Z,983.73
2023-03-07T12:21:52.768Z,983.81
2023-03-07T12:22:52.763Z,983.72
2023-03-07T12:23:52.771Z,983.74
2023-03-07T12:24:52.736Z,983.75
2023-03-07T12:25:52.727Z,983.72
2023-03-07T12:26:52.703Z,983.72
2023-03-07T12:27:52.693Z,983.78